Weather History for Ladysmith, WI

Change the Weather History Date:

Monday, October 29, 2012

  Actual Average (KRPD) Record (KRPD)
Temperature  
Mean Temperature 34 °F -  
Max Temperature 46 °F 47 °F 71 °F (2004)
Min Temperature 23 °F 33 °F 23 °F (2012)
Degree Days  
Heating Degree Days 30    
Moisture  
Dew Point 23 °F    
Average Humidity 69    
Maximum Humidity 93    
Minimum Humidity 34    
Precipitation  
Precipitation 0.00 in - - ()
Sea Level Pressure  
Sea Level Pressure 30.34 in    
Wind  
Wind Speed 1 mph (ENE)    
Max Wind Speed 7 mph    
Max Gust Speed -    
Visibility 10 miles    
Events      
Averages and records for this station are not official NWS values.
T = Trace of Precipitation, MM = Missing Value Source: NWS Daily Summary

Daily Weather History Graph

Daily Weather History Graph

Search for Another Location

Airport:

Trip Planner

Search our weather history database for the weather conditions in past years. The results will help you decide how hot, cold, wet, or windy it might be!

Date:

Astronomy

Oct. 29, 2012 Rise Set
Actual Time 7:39 AM CDT 5:54 PM CDT
Civil Twilight 7:09 AM CDT 6:25 PM CDT
Nautical Twilight 6:34 AM CDT 7:00 PM CDT
Astronomical Twilight 6:00 AM CDT 7:34 PM CDT
Moon 5:44 PM CDT (10/29) 7:32 AM CDT (10/29)
Length of Visible Light 11h 16m
Length of Day
10h 14m
Full, 100% of the Moon is Illuminated
Oct 29
Full
Oct 29
Full
Nov 6
Last Quarter
Nov 13
New
Nov 20
First Quarter

Hourly Weather History & Observations

Time (CDT) Temp. Windchill Dew Point Humidity Pressure Visibility Wind Dir Wind Speed Gust Speed Precip Events Conditions
12:15 AM 28.4 °F - 23.0 °F 80% 30.34 in 10.0 mi Calm Calm - N/A   Clear
12:35 AM 26.6 °F - 21.2 °F 80% 30.35 in 10.0 mi Calm Calm - N/A   Clear
12:55 AM 26.6 °F - 23.0 °F 86% 30.35 in 10.0 mi Calm Calm - N/A   Clear
1:15 AM 26.6 °F - 23.0 °F 86% 30.35 in 10.0 mi Calm Calm - N/A   Clear
1:35 AM 26.6 °F - 23.0 °F 86% 30.35 in 10.0 mi Calm Calm - N/A   Clear
1:55 AM 24.8 °F - 21.2 °F 86% 30.35 in 10.0 mi Calm Calm - N/A   Clear
2:15 AM 24.8 °F - 21.2 °F 86% 30.36 in 10.0 mi Calm Calm - N/A   Clear
2:35 AM 26.6 °F - 23.0 °F 86% 30.36 in 10.0 mi Calm Calm - N/A   Clear
2:55 AM 24.8 °F - 21.2 °F 86% 30.36 in 10.0 mi Calm Calm - N/A   Clear
3:15 AM 24.8 °F - 21.2 °F 86% 30.35 in 10.0 mi Calm Calm - N/A   Clear
3:35 AM 24.8 °F - 21.2 °F 86% 30.35 in 10.0 mi Calm Calm - N/A   Clear
3:55 AM 23.0 °F - 19.4 °F 86% 30.35 in 10.0 mi Calm Calm - N/A   Clear
4:15 AM 23.0 °F - 21.2 °F 93% 30.36 in 10.0 mi Calm Calm - N/A   Clear
4:35 AM 23.0 °F - 21.2 °F 93% 30.36 in 10.0 mi Calm Calm - N/A   Clear
4:55 AM 23.0 °F - 21.2 °F 93% 30.36 in 10.0 mi Calm Calm - N/A   Clear
5:15 AM 23.0 °F - 21.2 °F 93% 30.36 in 10.0 mi Calm Calm - N/A   Clear
5:35 AM 23.0 °F - 21.2 °F 93% 30.36 in 10.0 mi Calm Calm - N/A   Clear
5:55 AM 23.0 °F 18.4 °F 21.2 °F 93% 30.36 in 10.0 mi East 3.5 mph - N/A   Clear
6:15 AM 24.8 °F 20.5 °F 21.2 °F 86% 30.36 in 10.0 mi East 3.5 mph - N/A   Clear
6:55 AM 24.8 °F - 21.2 °F 86% 30.36 in 10.0 mi Calm Calm - N/A   Clear
7:15 AM 24.8 °F - 21.2 °F 86% 30.37 in 10.0 mi Calm Calm - N/A   Clear
7:35 AM 23.0 °F - 21.2 °F 93% 30.37 in 10.0 mi Calm Calm - N/A   Clear
7:55 AM 23.0 °F - 21.2 °F 93% 30.37 in 10.0 mi Calm Calm - N/A   Clear
8:15 AM 23.0 °F 17.0 °F 21.2 °F 93% 30.37 in 10.0 mi East 4.6 mph - N/A   Clear
8:35 AM 26.6 °F 22.6 °F 21.2 °F 80% 30.37 in 10.0 mi East 3.5 mph - N/A   Clear
8:55 AM 30.2 °F - 23.0 °F 75% 30.37 in 10.0 mi Calm Calm - N/A   Clear
9:15 AM 32.0 °F - 26.6 °F 80% 30.37 in 10.0 mi Calm Calm - N/A   Clear
9:35 AM 32.0 °F 26.4 °F 26.6 °F 80% 30.37 in 10.0 mi East 5.8 mph - N/A   Clear
9:55 AM 33.8 °F 27.7 °F 26.6 °F 75% 30.37 in 10.0 mi East 6.9 mph - N/A   Clear
10:15 AM 35.6 °F 32.8 °F 28.4 °F 75% 30.37 in 10.0 mi East 3.5 mph - N/A   Clear
10:35 AM 37.4 °F 33.8 °F 26.6 °F 65% 30.37 in 10.0 mi ESE 4.6 mph - N/A   Clear
10:55 AM 41.0 °F 39.0 °F 24.8 °F 53% 30.37 in 10.0 mi SE 3.5 mph - N/A   Clear
11:15 AM 41.0 °F - 24.8 °F 53% 30.37 in 10.0 mi Calm Calm - N/A   Clear
11:35 AM 42.8 °F - 23.0 °F 46% 30.36 in 10.0 mi Calm Calm - N/A   Clear
11:55 AM 42.8 °F 40.1 °F 21.2 °F 42% 30.36 in 10.0 mi SSW 4.6 mph - N/A   Clear
12:15 PM 44.6 °F 42.2 °F 21.2 °F 39% 30.35 in 10.0 mi South 4.6 mph - N/A   Clear
12:55 PM 44.6 °F 42.2 °F 21.2 °F 39% 30.35 in 10.0 mi South 4.6 mph - N/A   Clear
1:15 PM 44.6 °F - 21.2 °F 39% 30.34 in 10.0 mi Calm Calm - N/A   Clear
1:35 PM 44.6 °F 43.1 °F 19.4 °F 37% 30.33 in 10.0 mi West 3.5 mph - N/A   Clear
1:55 PM 46.4 °F - 19.4 °F 34% 30.33 in 10.0 mi Calm Calm - N/A   Clear
2:15 PM 46.4 °F 43.5 °F 21.2 °F 37% 30.32 in 10.0 mi North 5.8 mph - N/A   Clear
2:35 PM 46.4 °F 45.2 °F 21.2 °F 37% 30.32 in 10.0 mi North 3.5 mph - N/A   Clear
2:55 PM 46.4 °F 44.3 °F 21.2 °F 37% 30.32 in 10.0 mi NNW 4.6 mph - N/A   Clear
3:15 PM 46.4 °F 45.2 °F 21.2 °F 37% 30.32 in 10.0 mi North 3.5 mph - N/A   Clear
3:35 PM 46.4 °F 45.2 °F 21.2 °F 37% 30.31 in 10.0 mi NNE 3.5 mph - N/A   Clear
3:55 PM 46.4 °F - 21.2 °F 37% 30.31 in 10.0 mi Calm Calm - N/A   Clear
4:15 PM 46.4 °F - 21.2 °F 37% 30.31 in 10.0 mi Calm Calm - N/A   Clear
4:35 PM 46.4 °F - 19.4 °F 34% 30.30 in 10.0 mi Calm Calm - N/A   Clear
5:15 PM 46.4 °F - 21.2 °F 37% 30.30 in 10.0 mi Calm Calm - N/A   Clear
5:35 PM 44.6 °F - 19.4 °F 37% 30.30 in 10.0 mi Calm Calm - N/A   Clear
5:55 PM 42.8 °F - 21.2 °F 42% 30.29 in 10.0 mi Calm Calm - N/A   Clear
6:15 PM 39.2 °F - 26.6 °F 61% 30.29 in 10.0 mi Calm Calm - N/A   Clear
6:35 PM 35.6 °F - 28.4 °F 75% 30.29 in 10.0 mi Calm Calm - N/A   Clear
6:55 PM 33.8 °F - 26.6 °F 75% 30.29 in 10.0 mi Calm Calm - N/A   Clear
7:15 PM 33.8 °F - 26.6 °F 75% 30.29 in 10.0 mi Calm Calm - N/A   Clear
7:35 PM 32.0 °F - 24.8 °F 75% 30.29 in 10.0 mi Calm Calm - N/A   Clear
7:55 PM 32.0 °F - 26.6 °F 80% 30.29 in 10.0 mi Calm Calm - N/A   Clear
10:35 PM 32.0 °F 26.4 °F 26.6 °F 80% 30.27 in 10.0 mi NNE 5.8 mph - N/A   Clear
10:55 PM 32.0 °F 27.5 °F 26.6 °F 80% 30.27 in 10.0 mi NNE 4.6 mph - N/A   Clear
11:15 PM 32.0 °F 28.7 °F 26.6 °F 80% 30.26 in 5.0 mi NE 3.5 mph - N/A   Haze
11:35 PM 32.0 °F 27.5 °F 26.6 °F 80% 30.26 in 10.0 mi NNE 4.6 mph - N/A   Clear
11:55 PM 32.0 °F 27.5 °F 26.6 °F 80% 30.26 in 10.0 mi NNE 4.6 mph - N/A   Clear